KEMP/EMP METAR and TAF weather

Enter ICAO airport designator
Station Type Date Time Source
KEMP METAR 2019/08/19 11:53 UTC NOAA

KEMP 191153Z AUTO 13006KT 10SM CLR 23/23 A2997 RMK AO2 SLP138 70008 T02280228 10239 20228 53011


Station Type Date Time Source
KEMP Decoded METAR 2019/08/19 11:53 UTC NOAA

Station name not available
Aug 19, 2019 - 07:53 AM EDT / 2019.08.19 1153 UTC
Wind: from the SE (130 degrees) at 7 MPH (6 KT):0
Visibility: 10 mile(s):0
Sky conditions: clear
Temperature: 73.0 F (22.8 C)
Dew Point: 73.0 F (22.8 C)
Relative Humidity: 100%
Pressure (altimeter): 29.97 in. Hg (1014 hPa)
Pressure tendency: 0.03 inches (1.1 hPa) higher than three hours ago
ob: KEMP 191153Z AUTO 13006KT 10SM CLR 23/23 A2997 RMK AO2 SLP138 70008 T02280228 10239 20228 53011
cycle: 12

Station Type Date Time Source
KEMP TAF UTC NOAA

Error!

Example: see airport list